sensor_id;sensor_type;location;lat;lon;timestamp;P1;durP1;ratioP1;P2;durP2;ratioP2
68384;SDS011;55336;43.062;25.626;2022-08-21T00:01:49;1.95;;;1.85;;
68384;SDS011;55336;43.062;25.626;2022-08-21T00:04:15;1.52;;;1.42;;
68384;SDS011;55336;43.062;25.626;2022-08-21T00:06:41;2.05;;;1.85;;
68384;SDS011;55336;43.062;25.626;2022-08-21T00:11:33;2.05;;;1.92;;
68384;SDS011;55336;43.062;25.626;2022-08-21T00:14:00;2.08;;;1.88;;
68384;SDS011;55336;43.062;25.626;2022-08-21T00:18:54;2.22;;;1.90;;
68384;SDS011;55336;43.062;25.626;2022-08-21T00:21:20;2.90;;;1.95;;
68384;SDS011;55336;43.062;25.626;2022-08-21T00:23:47;3.83;;;1.90;;
68384;SDS011;55336;43.062;25.626;2022-08-21T00:28:39;2.58;;;2.20;;
68384;SDS011;55336;43.062;25.626;2022-08-21T00:31:05;2.03;;;1.85;;
68384;SDS011;55336;43.062;25.626;2022-08-21T00:35:57;2.28;;;1.90;;
68384;SDS011;55336;43.062;25.626;2022-08-21T00:40:51;3.78;;;3.38;;
68384;SDS011;55336;43.062;25.626;2022-08-21T00:43:27;4.90;;;3.10;;
68384;SDS011;55336;43.062;25.626;2022-08-21T00:45:59;1.90;;;1.80;;
68384;SDS011;55336;43.062;25.626;2022-08-21T00:48:26;4.93;;;2.50;;
68384;SDS011;55336;43.062;25.626;2022-08-21T00:50:54;5.50;;;2.67;;
68384;SDS011;55336;43.062;25.626;2022-08-21T00:53:23;1.52;;;1.42;;
68384;SDS011;55336;43.062;25.626;2022-08-21T00:55:50;2.08;;;1.85;;
68384;SDS011;55336;43.062;25.626;2022-08-21T00:58:17;1.55;;;1.45;;
68384;SDS011;55336;43.062;25.626;2022-08-21T01:00:44;1.95;;;1.80;;
68384;SDS011;55336;43.062;25.626;2022-08-21T01:03:14;2.00;;;1.83;;
68384;SDS011;55336;43.062;25.626;2022-08-21T01:05:43;4.70;;;2.60;;
68384;SDS011;55336;43.062;25.626;2022-08-21T01:08:09;2.83;;;2.42;;
68384;SDS011;55336;43.062;25.626;2022-08-21T01:10:36;2.30;;;2.13;;
68384;SDS011;55336;43.062;25.626;2022-08-21T01:13:03;3.42;;;2.35;;
68384;SDS011;55336;43.062;25.626;2022-08-21T01:15:36;3.13;;;2.30;;
68384;SDS011;55336;43.062;25.626;2022-08-21T01:18:05;2.70;;;2.50;;
68384;SDS011;55336;43.062;25.626;2022-08-21T01:20:33;1.90;;;1.80;;
68384;SDS011;55336;43.062;25.626;2022-08-21T01:23:02;4.15;;;2.65;;
68384;SDS011;55336;43.062;25.626;2022-08-21T01:25:30;2.08;;;1.98;;
68384;SDS011;55336;43.062;25.626;2022-08-21T01:27:57;3.20;;;2.90;;
68384;SDS011;55336;43.062;25.626;2022-08-21T01:30:27;3.38;;;1.95;;
68384;SDS011;55336;43.062;25.626;2022-08-21T01:32:54;2.40;;;2.20;;
68384;SDS011;55336;43.062;25.626;2022-08-21T01:35:21;1.77;;;1.67;;
68384;SDS011;55336;43.062;25.626;2022-08-21T01:37:48;2.17;;;2.08;;
68384;SDS011;55336;43.062;25.626;2022-08-21T01:40:14;4.53;;;2.70;;
68384;SDS011;55336;43.062;25.626;2022-08-21T01:42:42;2.30;;;2.10;;
68384;SDS011;55336;43.062;25.626;2022-08-21T01:45:10;2.72;;;2.10;;
68384;SDS011;55336;43.062;25.626;2022-08-21T01:47:36;2.35;;;2.15;;
68384;SDS011;55336;43.062;25.626;2022-08-21T01:50:04;2.17;;;2.03;;
68384;SDS011;55336;43.062;25.626;2022-08-21T01:52:31;2.00;;;1.75;;
68384;SDS011;55336;43.062;25.626;2022-08-21T01:57:23;5.00;;;2.53;;
68384;SDS011;55336;43.062;25.626;2022-08-21T01:59:50;2.75;;;2.53;;
68384;SDS011;55336;43.062;25.626;2022-08-21T02:02:15;2.15;;;1.85;;
68384;SDS011;55336;43.062;25.626;2022-08-21T02:07:07;2.97;;;2.65;;
68384;SDS011;55336;43.062;25.626;2022-08-21T02:09:34;2.22;;;2.00;;
68384;SDS011;55336;43.062;25.626;2022-08-21T02:12:00;2.38;;;2.08;;
68384;SDS011;55336;43.062;25.626;2022-08-21T02:16:51;2.22;;;2.03;;
68384;SDS011;55336;43.062;25.626;2022-08-21T02:19:18;3.45;;;2.72;;
68384;SDS011;55336;43.062;25.626;2022-08-21T02:21:44;4.00;;;3.38;;
68384;SDS011;55336;43.062;25.626;2022-08-21T02:24:10;2.63;;;2.42;;
68384;SDS011;55336;43.062;25.626;2022-08-21T02:26:36;2.65;;;2.33;;
68384;SDS011;55336;43.062;25.626;2022-08-21T02:29:03;2.85;;;2.60;;
68384;SDS011;55336;43.062;25.626;2022-08-21T02:31:29;5.63;;;2.83;;
68384;SDS011;55336;43.062;25.626;2022-08-21T02:33:56;2.88;;;2.65;;
68384;SDS011;55336;43.062;25.626;2022-08-21T02:36:22;2.85;;;2.58;;
68384;SDS011;55336;43.062;25.626;2022-08-21T02:38:48;8.48;;;3.53;;
68384;SDS011;55336;43.062;25.626;2022-08-21T02:41:16;4.65;;;2.88;;
68384;SDS011;55336;43.062;25.626;2022-08-21T02:43:43;2.88;;;2.47;;
68384;SDS011;55336;43.062;25.626;2022-08-21T02:46:11;2.90;;;2.40;;
68384;SDS011;55336;43.062;25.626;2022-08-21T02:48:39;3.95;;;2.45;;
68384;SDS011;55336;43.062;25.626;2022-08-21T02:51:07;2.63;;;2.42;;
68384;SDS011;55336;43.062;25.626;2022-08-21T02:53:39;3.25;;;2.95;;
68384;SDS011;55336;43.062;25.626;2022-08-21T02:56:06;3.25;;;2.92;;
68384;SDS011;55336;43.062;25.626;2022-08-21T02:58:37;3.72;;;2.65;;
68384;SDS011;55336;43.062;25.626;2022-08-21T03:01:07;2.72;;;2.53;;
68384;SDS011;55336;43.062;25.626;2022-08-21T03:03:35;3.35;;;3.05;;
68384;SDS011;55336;43.062;25.626;2022-08-21T03:06:04;3.13;;;2.85;;
68384;SDS011;55336;43.062;25.626;2022-08-21T03:08:30;2.10;;;1.90;;
68384;SDS011;55336;43.062;25.626;2022-08-21T03:10:56;2.97;;;2.70;;
68384;SDS011;55336;43.062;25.626;2022-08-21T03:13:26;5.65;;;3.45;;
68384;SDS011;55336;43.062;25.626;2022-08-21T03:15:52;2.42;;;2.28;;
68384;SDS011;55336;43.062;25.626;2022-08-21T03:18:19;2.40;;;2.28;;
68384;SDS011;55336;43.062;25.626;2022-08-21T03:20:45;3.15;;;2.67;;
68384;SDS011;55336;43.062;25.626;2022-08-21T03:23:12;3.50;;;2.42;;
68384;SDS011;55336;43.062;25.626;2022-08-21T03:25:39;4.20;;;3.17;;
68384;SDS011;55336;43.062;25.626;2022-08-21T03:28:07;3.45;;;3.15;;
68384;SDS011;55336;43.062;25.626;2022-08-21T03:30:36;3.72;;;3.42;;
68384;SDS011;55336;43.062;25.626;2022-08-21T03:33:02;2.78;;;2.53;;
68384;SDS011;55336;43.062;25.626;2022-08-21T03:35:28;3.45;;;3.13;;
68384;SDS011;55336;43.062;25.626;2022-08-21T03:37:54;3.03;;;2.83;;
68384;SDS011;55336;43.062;25.626;2022-08-21T03:40:21;4.40;;;3.50;;
68384;SDS011;55336;43.062;25.626;2022-08-21T03:42:47;3.55;;;3.25;;
68384;SDS011;55336;43.062;25.626;2022-08-21T03:45:14;5.93;;;4.03;;
68384;SDS011;55336;43.062;25.626;2022-08-21T03:47:55;3.33;;;3.03;;
68384;SDS011;55336;43.062;25.626;2022-08-21T03:50:26;5.75;;;4.40;;
68384;SDS011;55336;43.062;25.626;2022-08-21T03:52:56;5.20;;;3.35;;
68384;SDS011;55336;43.062;25.626;2022-08-21T03:55:23;4.72;;;2.80;;
68384;SDS011;55336;43.062;25.626;2022-08-21T03:57:50;3.53;;;3.22;;
68384;SDS011;55336;43.062;25.626;2022-08-21T04:05:11;4.93;;;3.40;;
68384;SDS011;55336;43.062;25.626;2022-08-21T04:07:37;3.92;;;3.63;;
68384;SDS011;55336;43.062;25.626;2022-08-21T04:10:03;4.70;;;4.18;;
68384;SDS011;55336;43.062;25.626;2022-08-21T04:12:30;3.35;;;3.05;;
68384;SDS011;55336;43.062;25.626;2022-08-21T04:14:56;4.10;;;3.70;;
68384;SDS011;55336;43.062;25.626;2022-08-21T04:17:22;4.20;;;3.88;;
68384;SDS011;55336;43.062;25.626;2022-08-21T04:22:14;3.28;;;2.80;;
68384;SDS011;55336;43.062;25.626;2022-08-21T04:24:41;4.00;;;3.20;;
68384;SDS011;55336;43.062;25.626;2022-08-21T04:27:07;4.97;;;3.72;;
68384;SDS011;55336;43.062;25.626;2022-08-21T04:29:33;4.95;;;4.22;;
68384;SDS011;55336;43.062;25.626;2022-08-21T04:34:25;3.85;;;3.33;;
68384;SDS011;55336;43.062;25.626;2022-08-21T04:39:16;4.30;;;3.85;;
68384;SDS011;55336;43.062;25.626;2022-08-21T04:41:42;3.70;;;3.40;;
68384;SDS011;55336;43.062;25.626;2022-08-21T04:44:08;5.75;;;4.22;;
68384;SDS011;55336;43.062;25.626;2022-08-21T04:49:00;4.13;;;3.80;;
68384;SDS011;55336;43.062;25.626;2022-08-21T04:54:29;3.33;;;3.03;;
68384;SDS011;55336;43.062;25.626;2022-08-21T04:56:53;6.25;;;4.35;;
68384;SDS011;55336;43.062;25.626;2022-08-21T04:59:30;6.78;;;5.00;;
68384;SDS011;55336;43.062;25.626;2022-08-21T05:02:00;4.03;;;3.65;;
68384;SDS011;55336;43.062;25.626;2022-08-21T05:04:28;4.78;;;4.03;;
68384;SDS011;55336;43.062;25.626;2022-08-21T05:06:58;9.40;;;4.55;;
68384;SDS011;55336;43.062;25.626;2022-08-21T05:09:27;16.35;;;4.47;;
68384;SDS011;55336;43.062;25.626;2022-08-21T05:11:53;6.57;;;4.28;;
68384;SDS011;55336;43.062;25.626;2022-08-21T05:14:20;5.80;;;4.60;;
68384;SDS011;55336;43.062;25.626;2022-08-21T05:16:46;6.50;;;4.70;;
68384;SDS011;55336;43.062;25.626;2022-08-21T05:19:12;5.63;;;4.30;;
68384;SDS011;55336;43.062;25.626;2022-08-21T05:21:41;6.38;;;4.90;;
68384;SDS011;55336;43.062;25.626;2022-08-21T05:24:08;5.40;;;4.75;;
68384;SDS011;55336;43.062;25.626;2022-08-21T05:26:34;5.10;;;4.00;;
68384;SDS011;55336;43.062;25.626;2022-08-21T05:29:01;5.75;;;4.65;;
68384;SDS011;55336;43.062;25.626;2022-08-21T05:31:28;4.80;;;4.28;;
68384;SDS011;55336;43.062;25.626;2022-08-21T05:33:54;5.03;;;4.20;;
68384;SDS011;55336;43.062;25.626;2022-08-21T05:36:20;4.97;;;4.55;;
68384;SDS011;55336;43.062;25.626;2022-08-21T05:38:47;5.68;;;4.53;;
68384;SDS011;55336;43.062;25.626;2022-08-21T05:41:13;7.63;;;4.63;;
68384;SDS011;55336;43.062;25.626;2022-08-21T05:46:05;5.32;;;4.82;;
68384;SDS011;55336;43.062;25.626;2022-08-21T05:48:33;4.45;;;4.05;;
68384;SDS011;55336;43.062;25.626;2022-08-21T05:51:04;4.40;;;3.97;;
68384;SDS011;55336;43.062;25.626;2022-08-21T05:53:35;4.00;;;3.60;;
68384;SDS011;55336;43.062;25.626;2022-08-21T05:56:02;5.90;;;4.78;;
68384;SDS011;55336;43.062;25.626;2022-08-21T05:58:29;7.30;;;4.75;;
68384;SDS011;55336;43.062;25.626;2022-08-21T06:00:56;7.53;;;4.35;;
68384;SDS011;55336;43.062;25.626;2022-08-21T06:03:27;6.13;;;4.38;;
68384;SDS011;55336;43.062;25.626;2022-08-21T06:05:55;4.30;;;3.90;;
68384;SDS011;55336;43.062;25.626;2022-08-21T06:10:48;4.10;;;3.28;;
68384;SDS011;55336;43.062;25.626;2022-08-21T06:13:16;4.10;;;3.70;;
68384;SDS011;55336;43.062;25.626;2022-08-21T06:15:43;3.58;;;3.28;;
68384;SDS011;55336;43.062;25.626;2022-08-21T06:20:35;3.87;;;3.33;;
68384;SDS011;55336;43.062;25.626;2022-08-21T06:23:02;3.42;;;3.13;;
68384;SDS011;55336;43.062;25.626;2022-08-21T06:27:59;3.38;;;2.65;;
68384;SDS011;55336;43.062;25.626;2022-08-21T06:30:30;3.45;;;3.15;;
68384;SDS011;55336;43.062;25.626;2022-08-21T06:32:56;3.10;;;2.88;;
68384;SDS011;55336;43.062;25.626;2022-08-21T06:35:26;3.00;;;2.58;;
68384;SDS011;55336;43.062;25.626;2022-08-21T06:37:54;2.80;;;2.60;;
68384;SDS011;55336;43.062;25.626;2022-08-21T06:40:20;2.92;;;2.72;;
68384;SDS011;55336;43.062;25.626;2022-08-21T06:42:47;3.67;;;3.38;;
68384;SDS011;55336;43.062;25.626;2022-08-21T06:47:38;3.15;;;2.88;;
68384;SDS011;55336;43.062;25.626;2022-08-21T06:52:33;3.83;;;3.53;;
68384;SDS011;55336;43.062;25.626;2022-08-21T06:55:04;2.72;;;2.53;;
68384;SDS011;55336;43.062;25.626;2022-08-21T06:57:32;3.28;;;2.97;;
68384;SDS011;55336;43.062;25.626;2022-08-21T07:00:01;4.10;;;3.70;;
68384;SDS011;55336;43.062;25.626;2022-08-21T07:02:29;3.45;;;3.20;;
68384;SDS011;55336;43.062;25.626;2022-08-21T07:07:22;3.25;;;2.95;;
68384;SDS011;55336;43.062;25.626;2022-08-21T07:09:48;4.75;;;2.97;;
68384;SDS011;55336;43.062;25.626;2022-08-21T07:14:40;2.67;;;2.47;;
68384;SDS011;55336;43.062;25.626;2022-08-21T07:19:31;3.03;;;2.78;;
68384;SDS011;55336;43.062;25.626;2022-08-21T07:24:25;3.83;;;3.45;;
68384;SDS011;55336;43.062;25.626;2022-08-21T07:26:51;2.17;;;2.08;;
68384;SDS011;55336;43.062;25.626;2022-08-21T07:31:43;3.13;;;2.90;;
68384;SDS011;55336;43.062;25.626;2022-08-21T07:36:35;3.33;;;3.05;;
68384;SDS011;55336;43.062;25.626;2022-08-21T07:41:28;3.15;;;2.85;;
68384;SDS011;55336;43.062;25.626;2022-08-21T07:43:55;3.10;;;2.72;;
68384;SDS011;55336;43.062;25.626;2022-08-21T07:46:22;3.92;;;2.70;;
68384;SDS011;55336;43.062;25.626;2022-08-21T07:48:49;2.45;;;2.25;;
68384;SDS011;55336;43.062;25.626;2022-08-21T07:53:41;4.82;;;3.33;;
68384;SDS011;55336;43.062;25.626;2022-08-21T07:56:12;2.83;;;2.63;;
68384;SDS011;55336;43.062;25.626;2022-08-21T08:01:05;4.00;;;2.95;;
68384;SDS011;55336;43.062;25.626;2022-08-21T08:03:31;3.00;;;2.70;;
68384;SDS011;55336;43.062;25.626;2022-08-21T08:08:23;3.33;;;3.05;;
68384;SDS011;55336;43.062;25.626;2022-08-21T08:10:49;2.70;;;2.50;;
68384;SDS011;55336;43.062;25.626;2022-08-21T08:15:41;5.97;;;3.13;;
68384;SDS011;55336;43.062;25.626;2022-08-21T08:20:33;9.40;;;3.28;;
68384;SDS011;55336;43.062;25.626;2022-08-21T08:25:25;3.60;;;2.90;;
68384;SDS011;55336;43.062;25.626;2022-08-21T08:27:52;3.03;;;2.70;;
68384;SDS011;55336;43.062;25.626;2022-08-21T08:30:19;3.58;;;3.25;;
68384;SDS011;55336;43.062;25.626;2022-08-21T08:32:46;5.43;;;2.97;;
68384;SDS011;55336;43.062;25.626;2022-08-21T08:35:12;2.30;;;2.10;;
68384;SDS011;55336;43.062;25.626;2022-08-21T08:37:39;4.47;;;2.50;;
68384;SDS011;55336;43.062;25.626;2022-08-21T08:40:10;3.33;;;3.03;;
68384;SDS011;55336;43.062;25.626;2022-08-21T08:42:47;3.33;;;3.03;;
68384;SDS011;55336;43.062;25.626;2022-08-21T08:45:16;3.05;;;2.85;;
68384;SDS011;55336;43.062;25.626;2022-08-21T08:47:47;3.72;;;2.72;;
68384;SDS011;55336;43.062;25.626;2022-08-21T08:52:54;3.25;;;2.92;;
68384;SDS011;55336;43.062;25.626;2022-08-21T08:55:34;2.35;;;2.15;;
68384;SDS011;55336;43.062;25.626;2022-08-21T08:58:03;3.70;;;3.38;;
68384;SDS011;55336;43.062;25.626;2022-08-21T09:00:30;3.40;;;3.10;;
68384;SDS011;55336;43.062;25.626;2022-08-21T09:02:58;5.35;;;3.08;;
68384;SDS011;55336;43.062;25.626;2022-08-21T09:05:27;1.77;;;1.67;;
68384;SDS011;55336;43.062;25.626;2022-08-21T09:11:04;2.00;;;1.90;;
68384;SDS011;55336;43.062;25.626;2022-08-21T09:16:41;2.40;;;2.20;;
68384;SDS011;55336;43.062;25.626;2022-08-21T09:24:31;3.47;;;2.63;;
68384;SDS011;55336;43.062;25.626;2022-08-21T09:27:08;2.10;;;1.90;;
68384;SDS011;55336;43.062;25.626;2022-08-21T09:29:47;2.97;;;2.55;;
68384;SDS011;55336;43.062;25.626;2022-08-21T09:32:21;2.00;;;1.85;;
68384;SDS011;55336;43.062;25.626;2022-08-21T09:37:31;2.90;;;2.70;;
68384;SDS011;55336;43.062;25.626;2022-08-21T09:40:00;3.75;;;2.67;;
68384;SDS011;55336;43.062;25.626;2022-08-21T09:42:31;2.55;;;2.35;;
68384;SDS011;55336;43.062;25.626;2022-08-21T09:47:49;3.63;;;2.67;;
68384;SDS011;55336;43.062;25.626;2022-08-21T09:50:17;2.60;;;2.40;;
68384;SDS011;55336;43.062;25.626;2022-08-21T09:52:55;2.53;;;2.33;;
68384;SDS011;55336;43.062;25.626;2022-08-21T09:55:30;2.95;;;2.75;;
68384;SDS011;55336;43.062;25.626;2022-08-21T09:58:15;2.70;;;2.50;;
68384;SDS011;55336;43.062;25.626;2022-08-21T10:00:43;2.58;;;2.38;;
68384;SDS011;55336;43.062;25.626;2022-08-21T10:03:16;2.60;;;2.30;;
68384;SDS011;55336;43.062;25.626;2022-08-21T10:05:56;2.00;;;1.90;;
68384;SDS011;55336;43.062;25.626;2022-08-21T10:08:24;3.22;;;2.30;;
68384;SDS011;55336;43.062;25.626;2022-08-21T10:10:54;5.35;;;3.15;;
68384;SDS011;55336;43.062;25.626;2022-08-21T10:13:49;3.17;;;2.58;;
68384;SDS011;55336;43.062;25.626;2022-08-21T10:24:58;1.65;;;1.55;;
68384;SDS011;55336;43.062;25.626;2022-08-21T10:30:56;1.63;;;1.45;;
68384;SDS011;55336;43.062;25.626;2022-08-21T10:36:13;3.92;;;2.80;;
68384;SDS011;55336;43.062;25.626;2022-08-21T10:47:15;2.20;;;1.63;;
68384;SDS011;55336;43.062;25.626;2022-08-21T10:55:14;1.30;;;1.20;;
68384;SDS011;55336;43.062;25.626;2022-08-21T10:57:46;2.33;;;2.05;;
68384;SDS011;55336;43.062;25.626;2022-08-21T11:03:16;3.40;;;2.15;;
68384;SDS011;55336;43.062;25.626;2022-08-21T11:05:59;1.42;;;1.33;;
68384;SDS011;55336;43.062;25.626;2022-08-21T11:08:38;1.85;;;1.75;;
68384;SDS011;55336;43.062;25.626;2022-08-21T11:11:13;2.13;;;1.75;;
68384;SDS011;55336;43.062;25.626;2022-08-21T11:16:25;1.95;;;1.85;;
68384;SDS011;55336;43.062;25.626;2022-08-21T11:19:28;1.35;;;1.25;;
68384;SDS011;55336;43.062;25.626;2022-08-21T11:24:47;2.20;;;1.55;;
68384;SDS011;55336;43.062;25.626;2022-08-21T11:27:21;2.25;;;2.03;;
68384;SDS011;55336;43.062;25.626;2022-08-21T11:29:52;2.40;;;2.20;;
68384;SDS011;55336;43.062;25.626;2022-08-21T11:32:27;8.35;;;1.70;;
68384;SDS011;55336;43.062;25.626;2022-08-21T11:40:26;2.03;;;1.88;;
68384;SDS011;55336;43.062;25.626;2022-08-21T11:51:11;0.93;;;0.80;;
68384;SDS011;55336;43.062;25.626;2022-08-21T11:53:45;5.75;;;1.85;;
68384;SDS011;55336;43.062;25.626;2022-08-21T11:59:35;1.67;;;1.38;;
68384;SDS011;55336;43.062;25.626;2022-08-21T12:02:18;2.00;;;1.08;;
68384;SDS011;55336;43.062;25.626;2022-08-21T12:04:55;1.85;;;1.70;;
68384;SDS011;55336;43.062;25.626;2022-08-21T12:10:13;3.28;;;1.50;;
68384;SDS011;55336;43.062;25.626;2022-08-21T12:12:41;0.98;;;0.98;;
68384;SDS011;55336;43.062;25.626;2022-08-21T12:17:58;1.25;;;1.15;;
68384;SDS011;55336;43.062;25.626;2022-08-21T12:23:02;2.20;;;1.58;;
68384;SDS011;55336;43.062;25.626;2022-08-21T12:25:39;2.28;;;2.08;;
68384;SDS011;55336;43.062;25.626;2022-08-21T12:28:15;1.98;;;1.80;;
68384;SDS011;55336;43.062;25.626;2022-08-21T12:30:48;2.05;;;1.05;;
68384;SDS011;55336;43.062;25.626;2022-08-21T12:36:06;2.40;;;1.95;;
68384;SDS011;55336;43.062;25.626;2022-08-21T12:38:52;1.67;;;1.58;;
68384;SDS011;55336;43.062;25.626;2022-08-21T12:41:33;1.98;;;1.25;;
68384;SDS011;55336;43.062;25.626;2022-08-21T12:44:43;2.08;;;1.67;;
68384;SDS011;55336;43.062;25.626;2022-08-21T12:47:17;1.45;;;1.35;;
68384;SDS011;55336;43.062;25.626;2022-08-21T12:52:35;1.70;;;1.17;;
68384;SDS011;55336;43.062;25.626;2022-08-21T12:55:15;1.63;;;1.52;;
68384;SDS011;55336;43.062;25.626;2022-08-21T12:57:52;1.42;;;1.33;;
68384;SDS011;55336;43.062;25.626;2022-08-21T13:00:20;2.58;;;1.73;;
68384;SDS011;55336;43.062;25.626;2022-08-21T13:02:49;1.63;;;1.27;;
68384;SDS011;55336;43.062;25.626;2022-08-21T13:05:23;1.30;;;1.05;;
68384;SDS011;55336;43.062;25.626;2022-08-21T13:07:51;0.98;;;0.98;;
68384;SDS011;55336;43.062;25.626;2022-08-21T13:10:21;1.30;;;1.20;;
68384;SDS011;55336;43.062;25.626;2022-08-21T13:12:56;1.48;;;1.38;;
68384;SDS011;55336;43.062;25.626;2022-08-21T13:15:30;1.83;;;1.30;;
68384;SDS011;55336;43.062;25.626;2022-08-21T13:17:57;1.48;;;1.30;;
68384;SDS011;55336;43.062;25.626;2022-08-21T13:20:28;2.25;;;1.67;;
68384;SDS011;55336;43.062;25.626;2022-08-21T13:23:06;2.03;;;1.67;;
68384;SDS011;55336;43.062;25.626;2022-08-21T13:25:48;2.08;;;1.80;;
68384;SDS011;55336;43.062;25.626;2022-08-21T13:28:14;3.30;;;1.50;;
68384;SDS011;55336;43.062;25.626;2022-08-21T13:33:15;1.83;;;1.50;;
68384;SDS011;55336;43.062;25.626;2022-08-21T13:35:48;1.83;;;1.55;;
68384;SDS011;55336;43.062;25.626;2022-08-21T13:38:21;1.42;;;1.33;;
68384;SDS011;55336;43.062;25.626;2022-08-21T13:40:54;1.95;;;1.85;;
68384;SDS011;55336;43.062;25.626;2022-08-21T13:43:31;3.33;;;1.83;;
68384;SDS011;55336;43.062;25.626;2022-08-21T13:45:58;2.53;;;1.70;;
68384;SDS011;55336;43.062;25.626;2022-08-21T13:48:28;1.48;;;1.38;;
68384;SDS011;55336;43.062;25.626;2022-08-21T13:50:58;1.65;;;1.55;;
68384;SDS011;55336;43.062;25.626;2022-08-21T13:56:02;2.35;;;1.67;;
68384;SDS011;55336;43.062;25.626;2022-08-21T13:58:31;2.22;;;1.80;;
68384;SDS011;55336;43.062;25.626;2022-08-21T14:01:17;1.92;;;1.83;;
68384;SDS011;55336;43.062;25.626;2022-08-21T14:03:47;1.95;;;1.75;;
68384;SDS011;55336;43.062;25.626;2022-08-21T14:06:22;1.45;;;1.35;;
68384;SDS011;55336;43.062;25.626;2022-08-21T14:08:59;2.35;;;1.52;;
68384;SDS011;55336;43.062;25.626;2022-08-21T14:11:33;2.28;;;2.08;;
68384;SDS011;55336;43.062;25.626;2022-08-21T14:14:05;1.55;;;1.45;;
68384;SDS011;55336;43.062;25.626;2022-08-21T14:17:29;1.15;;;1.13;;
68384;SDS011;55336;43.062;25.626;2022-08-21T14:20:03;2.95;;;2.38;;
68384;SDS011;55336;43.062;25.626;2022-08-21T14:23:03;1.45;;;1.35;;
68384;SDS011;55336;43.062;25.626;2022-08-21T14:28:23;2.20;;;2.00;;
68384;SDS011;55336;43.062;25.626;2022-08-21T14:34:12;4.68;;;2.30;;
68384;SDS011;55336;43.062;25.626;2022-08-21T14:36:56;6.78;;;2.75;;
68384;SDS011;55336;43.062;25.626;2022-08-21T14:39:45;2.40;;;2.20;;
68384;SDS011;55336;43.062;25.626;2022-08-21T14:44:40;2.63;;;2.30;;
68384;SDS011;55336;43.062;25.626;2022-08-21T14:47:07;2.75;;;2.55;;
68384;SDS011;55336;43.062;25.626;2022-08-21T14:49:33;3.35;;;3.05;;
68384;SDS011;55336;43.062;25.626;2022-08-21T14:54:28;5.07;;;3.38;;
68384;SDS011;55336;43.062;25.626;2022-08-21T14:56:59;4.53;;;2.95;;
68384;SDS011;55336;43.062;25.626;2022-08-21T14:59:43;4.65;;;3.10;;
68384;SDS011;55336;43.062;25.626;2022-08-21T15:09:08;3.67;;;2.20;;
68384;SDS011;55336;43.062;25.626;2022-08-21T15:14:55;3.05;;;2.30;;
68384;SDS011;55336;43.062;25.626;2022-08-21T15:17:34;3.53;;;2.42;;
68384;SDS011;55336;43.062;25.626;2022-08-21T15:20:47;1.98;;;1.75;;
68384;SDS011;55336;43.062;25.626;2022-08-21T15:23:16;1.70;;;1.60;;
68384;SDS011;55336;43.062;25.626;2022-08-21T15:25:46;1.80;;;1.70;;
68384;SDS011;55336;43.062;25.626;2022-08-21T15:31:52;1.35;;;1.25;;
68384;SDS011;55336;43.062;25.626;2022-08-21T15:34:20;1.35;;;1.20;;
68384;SDS011;55336;43.062;25.626;2022-08-21T15:36:47;1.63;;;1.45;;
68384;SDS011;55336;43.062;25.626;2022-08-21T15:41:39;2.20;;;1.67;;
68384;SDS011;55336;43.062;25.626;2022-08-21T15:44:05;3.42;;;1.95;;
68384;SDS011;55336;43.062;25.626;2022-08-21T15:46:31;1.63;;;1.52;;
68384;SDS011;55336;43.062;25.626;2022-08-21T15:48:58;1.45;;;1.38;;
68384;SDS011;55336;43.062;25.626;2022-08-21T15:55:19;1.52;;;1.42;;
68384;SDS011;55336;43.062;25.626;2022-08-21T15:57:51;1.52;;;1.42;;
68384;SDS011;55336;43.062;25.626;2022-08-21T16:00:20;2.00;;;1.73;;
68384;SDS011;55336;43.062;25.626;2022-08-21T16:03:13;1.30;;;1.20;;
68384;SDS011;55336;43.062;25.626;2022-08-21T16:05:56;1.10;;;1.05;;
68384;SDS011;55336;43.062;25.626;2022-08-21T16:08:43;1.67;;;1.55;;
68384;SDS011;55336;43.062;25.626;2022-08-21T16:11:22;2.47;;;2.28;;
68384;SDS011;55336;43.062;25.626;2022-08-21T16:14:05;1.60;;;1.50;;
68384;SDS011;55336;43.062;25.626;2022-08-21T16:16:42;2.33;;;2.03;;
68384;SDS011;55336;43.062;25.626;2022-08-21T16:19:08;2.72;;;2.10;;
68384;SDS011;55336;43.062;25.626;2022-08-21T16:21:36;1.48;;;1.33;;
68384;SDS011;55336;43.062;25.626;2022-08-21T16:24:05;1.50;;;1.30;;
68384;SDS011;55336;43.062;25.626;2022-08-21T16:26:34;4.13;;;2.20;;
68384;SDS011;55336;43.062;25.626;2022-08-21T16:29:00;4.43;;;3.22;;
68384;SDS011;55336;43.062;25.626;2022-08-21T16:31:29;3.45;;;2.50;;
68384;SDS011;55336;43.062;25.626;2022-08-21T16:33:58;2.40;;;2.20;;
68384;SDS011;55336;43.062;25.626;2022-08-21T16:36:25;2.20;;;2.00;;
68384;SDS011;55336;43.062;25.626;2022-08-21T16:38:52;1.63;;;1.52;;
68384;SDS011;55336;43.062;25.626;2022-08-21T16:41:19;2.88;;;2.17;;
68384;SDS011;55336;43.062;25.626;2022-08-21T16:43:47;4.30;;;2.75;;
68384;SDS011;55336;43.062;25.626;2022-08-21T16:46:14;4.72;;;3.30;;
68384;SDS011;55336;43.062;25.626;2022-08-21T16:48:42;3.58;;;2.42;;
68384;SDS011;55336;43.062;25.626;2022-08-21T16:51:12;3.78;;;3.05;;
68384;SDS011;55336;43.062;25.626;2022-08-21T16:53:39;4.07;;;2.80;;
68384;SDS011;55336;43.062;25.626;2022-08-21T16:58:32;2.85;;;2.25;;
68384;SDS011;55336;43.062;25.626;2022-08-21T17:01:03;1.58;;;1.48;;
68384;SDS011;55336;43.062;25.626;2022-08-21T17:03:39;2.08;;;1.52;;
68384;SDS011;55336;43.062;25.626;2022-08-21T17:06:09;1.70;;;1.50;;
68384;SDS011;55336;43.062;25.626;2022-08-21T17:08:35;3.63;;;1.90;;
68384;SDS011;55336;43.062;25.626;2022-08-21T17:11:02;2.35;;;2.13;;
68384;SDS011;55336;43.062;25.626;2022-08-21T17:13:30;2.50;;;2.20;;
68384;SDS011;55336;43.062;25.626;2022-08-21T17:18:23;4.60;;;2.42;;
68384;SDS011;55336;43.062;25.626;2022-08-21T17:20:50;2.80;;;2.60;;
68384;SDS011;55336;43.062;25.626;2022-08-21T17:23:17;3.70;;;2.63;;
68384;SDS011;55336;43.062;25.626;2022-08-21T17:25:46;4.43;;;2.70;;
68384;SDS011;55336;43.062;25.626;2022-08-21T17:28:20;2.90;;;2.33;;
68384;SDS011;55336;43.062;25.626;2022-08-21T17:30:49;3.20;;;2.55;;
68384;SDS011;55336;43.062;25.626;2022-08-21T17:33:18;2.45;;;2.22;;
68384;SDS011;55336;43.062;25.626;2022-08-21T17:35:45;3.83;;;2.42;;
68384;SDS011;55336;43.062;25.626;2022-08-21T17:38:11;3.17;;;2.42;;
68384;SDS011;55336;43.062;25.626;2022-08-21T17:43:03;3.05;;;2.72;;
68384;SDS011;55336;43.062;25.626;2022-08-21T17:45:32;3.53;;;3.00;;
68384;SDS011;55336;43.062;25.626;2022-08-21T17:47:57;3.60;;;2.65;;
68384;SDS011;55336;43.062;25.626;2022-08-21T17:50:23;2.63;;;2.42;;
68384;SDS011;55336;43.062;25.626;2022-08-21T17:55:16;3.50;;;2.38;;
68384;SDS011;55336;43.062;25.626;2022-08-21T17:57:43;3.35;;;2.55;;
68384;SDS011;55336;43.062;25.626;2022-08-21T18:00:12;2.78;;;2.58;;
68384;SDS011;55336;43.062;25.626;2022-08-21T18:02:40;2.15;;;1.95;;
68384;SDS011;55336;43.062;25.626;2022-08-21T18:05:08;6.28;;;3.00;;
68384;SDS011;55336;43.062;25.626;2022-08-21T18:07:35;9.85;;;2.67;;
68384;SDS011;55336;43.062;25.626;2022-08-21T18:10:03;3.78;;;3.38;;
68384;SDS011;55336;43.062;25.626;2022-08-21T18:12:31;3.75;;;2.20;;
68384;SDS011;55336;43.062;25.626;2022-08-21T18:14:59;3.88;;;2.70;;
68384;SDS011;55336;43.062;25.626;2022-08-21T18:17:26;2.65;;;2.35;;
68384;SDS011;55336;43.062;25.626;2022-08-21T18:19:54;2.47;;;2.17;;
68384;SDS011;55336;43.062;25.626;2022-08-21T18:22:20;2.72;;;2.30;;
68384;SDS011;55336;43.062;25.626;2022-08-21T18:24:46;3.70;;;2.80;;
68384;SDS011;55336;43.062;25.626;2022-08-21T18:29:39;2.85;;;2.65;;